createdAt,value
2023-02-13T00:00:37.163Z,54.32
2023-02-13T00:01:46.690Z,54.36
2023-02-13T00:04:11.035Z,54.19
2023-02-13T00:05:20.804Z,54.20
2023-02-13T00:06:30.289Z,54.30
2023-02-13T00:07:39.225Z,54.38
2023-02-13T00:08:48.869Z,54.34
2023-02-13T00:09:57.885Z,54.35
2023-02-13T00:11:08.350Z,54.25
2023-02-13T00:12:18.070Z,53.98
2023-02-13T00:13:26.997Z,54.02
2023-02-13T00:14:39.667Z,54.05
2023-02-13T00:17:15.346Z,54.19
2023-02-13T00:18:25.189Z,54.28
2023-02-13T00:19:34.159Z,54.38
2023-02-13T00:20:43.225Z,54.10
2023-02-13T00:21:51.740Z,54.03
2023-02-13T00:23:00.944Z,54.13
2023-02-13T00:24:09.962Z,54.15
2023-02-13T00:25:20.895Z,53.97
2023-02-13T00:26:31.744Z,54.06
2023-02-13T00:27:42.081Z,54.12
2023-02-13T00:28:51.345Z,54.31
2023-02-13T00:30:01.287Z,54.64
2023-02-13T00:31:16.432Z,54.79
2023-02-13T00:32:25.837Z,54.82
2023-02-13T00:33:37.347Z,54.71
2023-02-13T00:34:47.075Z,54.60
2023-02-13T00:37:25.105Z,54.88
2023-02-13T00:38:35.362Z,55.02
2023-02-13T00:40:59.963Z,54.96
2023-02-13T00:42:10.179Z,54.84
2023-02-13T00:43:20.382Z,54.74
2023-02-13T00:44:30.174Z,54.64
2023-02-13T00:45:40.864Z,54.72
2023-02-13T00:46:50.054Z,54.50
2023-02-13T00:47:59.079Z,54.49
2023-02-13T00:49:10.695Z,54.75
2023-02-13T00:50:20.121Z,54.57
2023-02-13T00:51:29.789Z,54.46
2023-02-13T00:52:40.857Z,54.58
2023-02-13T00:53:50.697Z,54.51
2023-02-13T00:55:01.345Z,54.62
2023-02-13T00:56:11.289Z,54.72
2023-02-13T00:57:20.921Z,54.50
2023-02-13T00:58:31.852Z,54.75
2023-02-13T00:59:40.471Z,54.70
2023-02-13T01:00:51.517Z,54.55
2023-02-13T01:02:01.091Z,54.34
2023-02-13T01:03:10.977Z,54.38
2023-02-13T01:04:20.805Z,54.53
2023-02-13T01:05:31.215Z,54.63
2023-02-13T01:06:40.916Z,54.61
2023-02-13T01:09:26.413Z,54.82
2023-02-13T01:11:54.699Z,54.69
2023-02-13T01:13:04.109Z,54.62
2023-02-13T01:14:13.231Z,54.60
2023-02-13T01:15:22.463Z,54.55
2023-02-13T01:16:31.573Z,54.55
2023-02-13T01:17:40.398Z,54.61
2023-02-13T01:18:49.586Z,54.38
2023-02-13T01:19:58.102Z,54.35
2023-02-13T01:21:11.034Z,54.44
2023-02-13T01:22:22.307Z,54.57
2023-02-13T01:23:33.422Z,54.40
2023-02-13T01:24:43.108Z,54.44
2023-02-13T01:25:53.063Z,54.65
2023-02-13T01:27:02.371Z,54.51
2023-02-13T01:28:11.470Z,54.58
2023-02-13T01:29:20.460Z,54.61
2023-02-13T01:30:30.332Z,54.70
2023-02-13T01:31:40.078Z,54.76
2023-02-13T01:32:49.887Z,54.83
2023-02-13T01:33:59.446Z,54.45
2023-02-13T01:35:10.499Z,54.41
2023-02-13T01:37:36.634Z,54.64
2023-02-13T01:40:01.491Z,54.79
2023-02-13T01:42:30.967Z,54.83
2023-02-13T01:44:00.469Z,54.73
2023-02-13T01:46:44.267Z,54.61
2023-02-13T01:48:06.516Z,54.73
2023-02-13T01:49:20.716Z,54.90
2023-02-13T01:50:43.065Z,55.02
2023-02-13T01:51:55.827Z,54.94
2023-02-13T01:53:14.983Z,55.03
2023-02-13T01:54:32.964Z,55.16
2023-02-13T01:58:28.732Z,55.12
2023-02-13T02:00:59.348Z,55.14
2023-02-13T02:02:10.150Z,55.11
2023-02-13T02:04:41.891Z,55.24
2023-02-13T02:05:56.372Z,55.34
2023-02-13T02:08:29.165Z,55.42
2023-02-13T02:09:41.065Z,55.63
2023-02-13T02:10:50.446Z,55.48
2023-02-13T02:12:03.875Z,55.53
2023-02-13T02:13:18.170Z,55.63
2023-02-13T02:14:27.781Z,55.41
2023-02-13T02:15:39.029Z,55.51
2023-02-13T02:16:48.084Z,55.70
2023-02-13T02:17:57.859Z,55.82
2023-02-13T02:19:11.306Z,55.93
2023-02-13T02:20:37.556Z,55.91
2023-02-13T02:23:45.647Z,55.66
2023-02-13T02:25:24.301Z,55.90
2023-02-13T02:27:09.026Z,55.68
2023-02-13T02:28:24.217Z,55.93
2023-02-13T02:29:40.533Z,55.76
2023-02-13T02:33:57.807Z,56.03
2023-02-13T02:37:16.649Z,56.17
2023-02-13T02:38:35.888Z,56.24
2023-02-13T02:40:08.048Z,56.07
2023-02-13T02:43:06.542Z,56.24
2023-02-13T02:44:29.583Z,56.25
2023-02-13T02:45:50.944Z,56.23
2023-02-13T02:49:25.104Z,56.14
2023-02-13T02:50:55.094Z,56.24
2023-02-13T02:52:07.638Z,56.32
2023-02-13T02:55:06.053Z,56.24
2023-02-13T02:56:26.809Z,56.37
2023-02-13T02:58:07.269Z,56.19
2023-02-13T02:59:38.546Z,56.33
2023-02-13T03:01:09.442Z,56.34
2023-02-13T03:02:37.529Z,56.36
2023-02-13T03:04:07.341Z,56.59
2023-02-13T03:05:38.598Z,56.71
2023-02-13T03:08:08.706Z,56.78
2023-02-13T03:09:40.620Z,56.64
2023-02-13T03:12:44.800Z,56.89
2023-02-13T03:13:55.343Z,56.75
2023-02-13T03:16:43.708Z,56.78
2023-02-13T03:18:12.195Z,56.99
2023-02-13T03:19:43.079Z,56.75
2023-02-13T03:21:22.231Z,57.03
2023-02-13T03:22:38.214Z,56.85
2023-02-13T03:23:51.020Z,56.90
2023-02-13T03:26:48.046Z,57.13
2023-02-13T03:31:34.191Z,56.95
2023-02-13T03:33:08.764Z,56.85
2023-02-13T03:34:21.984Z,56.93
2023-02-13T03:36:17.403Z,56.89
2023-02-13T03:37:53.513Z,56.91
2023-02-13T03:42:10.499Z,57.20
2023-02-13T03:43:21.916Z,56.97
2023-02-13T03:44:34.609Z,57.05
2023-02-13T03:45:53.583Z,56.84
2023-02-13T03:47:05.732Z,56.96
2023-02-13T03:48:36.573Z,56.90
2023-02-13T03:50:08.588Z,57.11
2023-02-13T03:51:26.258Z,57.01
2023-02-13T03:52:45.554Z,57.15
2023-02-13T03:54:02.906Z,57.37
2023-02-13T03:57:28.700Z,57.38
2023-02-13T03:58:59.497Z,57.80
2023-02-13T04:00:11.250Z,57.82
2023-02-13T04:04:31.915Z,57.83
2023-02-13T04:07:07.363Z,58.14
2023-02-13T04:08:16.896Z,58.02
2023-02-13T04:09:27.912Z,58.11
2023-02-13T04:12:14.932Z,58.25
2023-02-13T04:13:37.087Z,58.32
2023-02-13T04:14:58.891Z,58.69
2023-02-13T04:16:19.521Z,58.60
2023-02-13T04:17:39.877Z,58.41
2023-02-13T04:18:52.603Z,58.37
2023-02-13T04:20:02.332Z,58.51
2023-02-13T04:21:11.843Z,58.71
2023-02-13T04:22:21.169Z,58.63
2023-02-13T04:23:32.240Z,58.78
2023-02-13T04:24:42.085Z,58.87
2023-02-13T04:25:57.567Z,58.75
2023-02-13T04:27:09.392Z,58.82
2023-02-13T04:28:18.944Z,58.77
2023-02-13T04:29:27.961Z,59.00
2023-02-13T04:30:37.993Z,59.42
2023-02-13T04:31:47.385Z,59.44
2023-02-13T04:32:57.393Z,58.95
2023-02-13T04:34:06.814Z,59.08
2023-02-13T04:35:15.974Z,59.09
2023-02-13T04:37:41.613Z,59.30
2023-02-13T04:38:51.936Z,59.31
2023-02-13T04:40:02.020Z,59.60
2023-02-13T04:41:11.776Z,59.74
2023-02-13T04:42:20.389Z,59.83
2023-02-13T04:43:30.211Z,60.13
2023-02-13T04:44:39.439Z,60.27
2023-02-13T04:47:05.729Z,59.94
2023-02-13T04:48:16.577Z,60.06
2023-02-13T04:49:24.868Z,60.33
2023-02-13T04:50:34.125Z,60.08
2023-02-13T04:51:43.726Z,60.27
2023-02-13T04:52:58.076Z,59.95
2023-02-13T04:54:07.555Z,59.77
2023-02-13T04:55:18.482Z,59.76
2023-02-13T04:57:42.110Z,60.04
2023-02-13T04:58:50.626Z,59.99
2023-02-13T04:59:59.589Z,59.88
2023-02-13T05:02:32.138Z,60.21
2023-02-13T05:03:42.425Z,60.04
2023-02-13T05:04:51.650Z,60.15
2023-02-13T05:06:00.331Z,60.17
2023-02-13T05:07:09.150Z,60.13
2023-02-13T05:08:18.791Z,60.20
2023-02-13T05:09:28.432Z,59.81
2023-02-13T05:10:37.850Z,59.75
2023-02-13T05:11:47.487Z,59.71
2023-02-13T05:12:56.216Z,59.33
2023-02-13T05:14:05.484Z,59.42
2023-02-13T05:15:14.634Z,59.38
2023-02-13T05:16:25.885Z,59.50
2023-02-13T05:18:49.340Z,59.74
2023-02-13T05:20:00.468Z,60.06
2023-02-13T05:21:28.305Z,60.11
2023-02-13T05:22:55.195Z,59.86
2023-02-13T05:24:05.589Z,59.96
2023-02-13T05:25:14.871Z,60.50
2023-02-13T05:27:59.172Z,60.06
2023-02-13T05:29:20.179Z,60.20
2023-02-13T05:31:50.455Z,60.19
2023-02-13T05:32:59.343Z,60.18
2023-02-13T05:34:08.943Z,60.30
2023-02-13T05:35:21.042Z,60.20
2023-02-13T05:36:30.224Z,60.34
2023-02-13T05:37:39.152Z,60.39
2023-02-13T05:40:03.970Z,60.03
2023-02-13T05:42:28.914Z,59.69
2023-02-13T05:43:37.494Z,59.76
2023-02-13T05:44:47.420Z,59.86
2023-02-13T05:46:05.627Z,59.75
2023-02-13T05:47:14.708Z,59.74
2023-02-13T05:48:24.017Z,60.02
2023-02-13T05:49:34.718Z,60.26
2023-02-13T05:50:46.776Z,60.06
2023-02-13T05:53:31.273Z,59.26
2023-02-13T05:54:40.802Z,59.32
2023-02-13T05:57:06.894Z,59.35
2023-02-13T05:58:17.539Z,59.66
2023-02-13T06:00:41.604Z,60.05
2023-02-13T06:01:51.495Z,59.80
2023-02-13T06:03:01.365Z,59.73
2023-02-13T06:04:11.878Z,59.68
2023-02-13T06:06:36.708Z,59.76
2023-02-13T06:07:45.237Z,59.88
2023-02-13T06:08:53.850Z,59.97
2023-02-13T06:10:03.724Z,59.90
2023-02-13T06:11:13.554Z,59.84
2023-02-13T06:12:24.174Z,59.99
2023-02-13T06:13:33.508Z,59.64
2023-02-13T06:14:43.366Z,59.64
2023-02-13T06:17:07.171Z,59.76
2023-02-13T06:18:15.903Z,59.68
2023-02-13T06:19:24.967Z,59.47
2023-02-13T06:20:35.251Z,59.59
2023-02-13T06:21:44.340Z,59.55
2023-02-13T06:22:55.403Z,59.58
2023-02-13T06:24:07.714Z,59.51
2023-02-13T06:25:16.559Z,59.56
2023-02-13T06:27:40.144Z,59.61
2023-02-13T06:28:49.512Z,59.22
2023-02-13T06:31:15.082Z,59.36
2023-02-13T06:32:24.858Z,59.54
2023-02-13T06:33:33.921Z,59.40
2023-02-13T06:35:58.422Z,59.36
2023-02-13T06:38:31.246Z,59.72
2023-02-13T06:40:59.282Z,59.37
2023-02-13T06:42:08.501Z,59.41
2023-02-13T06:43:18.207Z,59.51
2023-02-13T06:45:43.031Z,59.46
2023-02-13T06:46:53.705Z,59.37
2023-02-13T06:49:18.117Z,59.34
2023-02-13T06:51:43.922Z,59.18
2023-02-13T06:52:53.752Z,59.27
2023-02-13T06:54:02.867Z,58.70
2023-02-13T06:55:11.532Z,58.83
2023-02-13T06:56:20.296Z,58.70
2023-02-13T06:57:30.806Z,58.92
2023-02-13T06:58:40.819Z,58.78
2023-02-13T06:59:49.484Z,58.60
2023-02-13T07:00:58.996Z,58.46
2023-02-13T07:02:11.143Z,58.49
2023-02-13T07:03:22.160Z,58.66
2023-02-13T07:04:30.675Z,58.71
2023-02-13T07:06:58.492Z,58.58
2023-02-13T07:08:09.534Z,58.83
2023-02-13T07:09:18.046Z,58.80
2023-02-13T07:11:43.550Z,58.43
2023-02-13T07:13:05.018Z,58.44
2023-02-13T07:14:03.233Z,58.48
2023-02-13T07:15:13.523Z,58.84
2023-02-13T07:16:24.236Z,58.84
2023-02-13T07:17:33.835Z,58.31
2023-02-13T07:18:42.504Z,58.06
2023-02-13T07:19:51.658Z,58.12
2023-02-13T07:21:04.277Z,58.25
2023-02-13T07:22:12.818Z,58.14
2023-02-13T07:23:23.442Z,57.97
2023-02-13T07:24:35.242Z,58.12
2023-02-13T07:25:44.851Z,58.36
2023-02-13T07:26:54.082Z,58.26
2023-02-13T07:28:04.562Z,58.42
2023-02-13T07:29:15.865Z,58.53
2023-02-13T07:30:25.809Z,58.52
2023-02-13T07:31:36.567Z,58.62
2023-02-13T07:32:44.926Z,58.39
2023-02-13T07:33:53.482Z,58.55
2023-02-13T07:35:02.894Z,58.06
2023-02-13T07:36:12.707Z,58.30
2023-02-13T07:37:21.263Z,58.16
2023-02-13T07:39:48.008Z,58.53
2023-02-13T07:42:16.284Z,58.08
2023-02-13T07:43:26.473Z,58.04
2023-02-13T07:44:35.341Z,57.92
2023-02-13T07:45:43.968Z,57.66
2023-02-13T07:46:53.218Z,57.93
2023-02-13T07:48:02.362Z,58.02
2023-02-13T07:49:11.053Z,58.01
2023-02-13T07:51:35.617Z,58.08
2023-02-13T07:52:44.156Z,57.81
2023-02-13T07:53:52.663Z,57.79
2023-02-13T07:55:02.299Z,57.55
2023-02-13T07:56:11.527Z,57.69
2023-02-13T07:57:22.498Z,57.86
2023-02-13T07:58:32.006Z,58.06
2023-02-13T07:59:42.487Z,57.91
2023-02-13T08:00:51.542Z,57.88
2023-02-13T08:02:00.558Z,57.66
2023-02-13T08:03:09.687Z,57.48
2023-02-13T08:04:18.354Z,57.48
2023-02-13T08:05:28.689Z,57.38
2023-02-13T08:07:55.463Z,57.68
2023-02-13T08:09:23.003Z,57.87
2023-02-13T08:11:59.482Z,57.31
2023-02-13T08:13:10.455Z,57.04
2023-02-13T08:14:21.913Z,57.33
2023-02-13T08:15:31.579Z,56.96
2023-02-13T08:16:40.237Z,57.42
2023-02-13T08:17:49.261Z,57.02
2023-02-13T08:18:57.959Z,57.22
2023-02-13T08:20:08.274Z,57.29
2023-02-13T08:21:17.768Z,57.05
2023-02-13T08:22:26.374Z,57.01
2023-02-13T08:23:34.983Z,57.06
2023-02-13T08:26:03.163Z,57.08
2023-02-13T08:27:16.088Z,57.24
2023-02-13T08:28:26.402Z,57.23
2023-02-13T08:29:35.091Z,57.06
2023-02-13T08:30:44.362Z,56.85
2023-02-13T08:31:53.458Z,57.01
2023-02-13T08:33:03.088Z,56.92
2023-02-13T08:34:12.302Z,57.03
2023-02-13T08:35:22.333Z,56.96
2023-02-13T08:36:31.380Z,56.89
2023-02-13T08:37:40.438Z,56.94
2023-02-13T08:38:49.596Z,57.04
2023-02-13T08:39:58.690Z,56.84
2023-02-13T08:41:08.478Z,56.63
2023-02-13T08:42:17.195Z,57.06
2023-02-13T08:43:27.025Z,56.94
2023-02-13T08:44:36.789Z,56.93
2023-02-13T08:45:46.550Z,56.99
2023-02-13T08:48:11.033Z,56.74
2023-02-13T08:49:20.815Z,56.67
2023-02-13T08:50:31.514Z,56.67
2023-02-13T08:51:40.257Z,56.61
2023-02-13T08:52:49.883Z,56.20
2023-02-13T08:53:58.512Z,56.31
2023-02-13T08:55:10.191Z,56.37
2023-02-13T08:56:20.528Z,56.41
2023-02-13T08:57:30.781Z,56.68
2023-02-13T08:58:39.487Z,56.94
2023-02-13T08:59:48.121Z,57.42
2023-02-13T09:00:58.158Z,57.21
2023-02-13T09:02:07.188Z,57.40
2023-02-13T09:03:17.296Z,57.61
2023-02-13T09:05:44.464Z,57.93
2023-02-13T09:06:53.109Z,58.03
2023-02-13T09:08:03.957Z,57.91
2023-02-13T09:09:13.413Z,57.93
2023-02-13T09:11:41.320Z,58.36
2023-02-13T09:12:53.769Z,58.49
2023-02-13T09:14:02.934Z,58.40
2023-02-13T09:15:12.672Z,58.50
2023-02-13T09:16:22.315Z,58.54
2023-02-13T09:17:32.326Z,58.58
2023-02-13T09:18:41.320Z,58.71
2023-02-13T09:19:49.829Z,58.56
2023-02-13T09:22:19.171Z,58.83
2023-02-13T09:23:34.911Z,58.85
2023-02-13T09:24:44.918Z,59.00
2023-02-13T09:27:09.437Z,59.16
2023-02-13T09:28:20.237Z,58.98
2023-02-13T09:29:30.749Z,59.11
2023-02-13T09:30:40.011Z,59.67
2023-02-13T09:31:51.270Z,59.85
2023-02-13T09:33:00.993Z,60.21
2023-02-13T09:34:11.324Z,60.40
2023-02-13T09:35:21.989Z,60.61
2023-02-13T09:37:47.808Z,61.19
2023-02-13T09:38:58.629Z,61.23
2023-02-13T09:41:28.810Z,61.44
2023-02-13T09:42:38.552Z,61.57
2023-02-13T09:43:58.613Z,61.50
2023-02-13T09:46:28.998Z,61.67
2023-02-13T09:49:00.873Z,62.06
2023-02-13T09:50:16.400Z,61.99
2023-02-13T09:51:27.210Z,62.09
2023-02-13T09:52:36.929Z,62.10
2023-02-13T09:53:58.359Z,61.89
2023-02-13T09:55:24.091Z,61.73
2023-02-13T09:56:41.921Z,61.76
2023-02-13T10:00:52.622Z,61.66
2023-02-13T10:03:47.596Z,62.18
2023-02-13T10:05:08.995Z,62.45
2023-02-13T10:08:03.580Z,62.78
2023-02-13T10:11:35.631Z,62.67
2023-02-13T10:12:59.006Z,62.51
2023-02-13T10:14:28.051Z,62.79
2023-02-13T10:15:50.384Z,63.21
2023-02-13T10:17:06.840Z,63.29
2023-02-13T10:18:19.032Z,63.17
2023-02-13T10:19:46.729Z,63.19
2023-02-13T10:21:01.386Z,63.42
2023-02-13T10:22:14.211Z,63.92
2023-02-13T10:23:43.714Z,63.91
2023-02-13T10:25:22.381Z,63.56
2023-02-13T10:30:04.130Z,64.18
2023-02-13T10:31:20.284Z,64.10
2023-02-13T10:34:01.833Z,64.23
2023-02-13T10:35:30.114Z,64.22
2023-02-13T10:37:59.850Z,64.13
2023-02-13T10:41:07.446Z,63.96
2023-02-13T10:44:19.480Z,64.05
2023-02-13T10:47:53.906Z,64.23
2023-02-13T10:49:19.130Z,64.33
2023-02-13T10:50:43.598Z,64.63
2023-02-13T10:52:04.369Z,64.86
2023-02-13T10:53:36.468Z,65.03
2023-02-13T10:55:10.080Z,65.09
2023-02-13T10:56:26.002Z,65.34
2023-02-13T10:57:58.293Z,65.16
2023-02-13T10:59:14.327Z,65.20
2023-02-13T11:01:59.531Z,65.24
2023-02-13T11:04:28.736Z,65.20
2023-02-13T11:05:40.344Z,65.50
2023-02-13T11:07:04.187Z,65.57
2023-02-13T11:08:19.611Z,65.45
2023-02-13T11:09:31.679Z,65.40
2023-02-13T11:10:40.521Z,65.50
2023-02-13T11:11:50.356Z,65.54
2023-02-13T11:14:22.143Z,65.39
2023-02-13T11:17:01.552Z,65.32
2023-02-13T11:18:18.645Z,65.35
2023-02-13T11:19:51.872Z,65.26
2023-02-13T11:22:44.082Z,65.10
2023-02-13T11:26:39.719Z,65.10
2023-02-13T11:27:54.479Z,64.92
2023-02-13T11:30:36.719Z,65.15
2023-02-13T11:31:47.132Z,65.19
2023-02-13T11:34:26.018Z,65.44
2023-02-13T11:35:37.271Z,65.59
2023-02-13T11:36:52.751Z,65.61
2023-02-13T11:38:18.782Z,65.71
2023-02-13T11:39:28.203Z,66.20
2023-02-13T11:40:38.426Z,66.52
2023-02-13T11:41:52.434Z,66.59
2023-02-13T11:43:01.702Z,66.77
2023-02-13T11:45:38.784Z,67.27
2023-02-13T11:46:50.749Z,67.53
2023-02-13T11:48:00.219Z,67.62
2023-02-13T11:50:38.077Z,67.79
2023-02-13T11:51:53.777Z,67.79
2023-02-13T11:53:09.204Z,67.89
2023-02-13T11:54:37.107Z,68.00
2023-02-13T11:56:07.842Z,68.35
2023-02-13T11:57:31.145Z,68.51
2023-02-13T11:58:41.543Z,68.46
2023-02-13T11:59:53.137Z,68.49
2023-02-13T12:02:49.294Z,68.36
2023-02-13T12:04:17.384Z,68.49
2023-02-13T12:08:18.692Z,68.54
2023-02-13T12:09:29.144Z,68.38
2023-02-13T12:10:38.854Z,68.25
2023-02-13T12:11:51.267Z,68.30
2023-02-13T12:13:22.797Z,68.32
2023-02-13T12:15:53.902Z,68.44
2023-02-13T12:17:12.560Z,68.30
2023-02-13T12:19:43.788Z,68.04
2023-02-13T12:22:36.572Z,68.07
2023-02-13T12:25:29.539Z,67.96
2023-02-13T12:28:18.321Z,68.17
2023-02-13T12:29:31.190Z,67.92
2023-02-13T12:31:01.289Z,67.83
2023-02-13T12:34:06.956Z,67.87
2023-02-13T12:36:59.854Z,67.78
2023-02-13T12:38:32.033Z,67.90
2023-02-13T12:41:21.664Z,67.85
2023-02-13T12:42:37.495Z,67.89
2023-02-13T12:47:12.223Z,68.26
2023-02-13T12:48:55.066Z,68.11
2023-02-13T12:50:28.953Z,68.28
2023-02-13T12:51:42.553Z,68.49
2023-02-13T12:53:10.947Z,68.22
2023-02-13T12:54:31.279Z,68.41
2023-02-13T12:56:16.613Z,68.31
2023-02-13T12:59:11.463Z,68.14
2023-02-13T13:00:44.963Z,68.12
2023-02-13T13:02:01.359Z,68.30
2023-02-13T13:03:31.026Z,68.35
2023-02-13T13:05:00.138Z,68.34
2023-02-13T13:06:36.715Z,68.38
2023-02-13T13:08:08.924Z,68.37
2023-02-13T13:09:42.577Z,68.45
2023-02-13T13:11:27.049Z,68.50
2023-02-13T13:12:50.138Z,68.65
2023-02-13T13:14:12.490Z,68.89
2023-02-13T13:15:42.816Z,68.92
2023-02-13T13:17:27.005Z,68.82
2023-02-13T13:19:00.091Z,68.84
2023-02-13T13:20:40.464Z,69.02
2023-02-13T13:22:02.593Z,69.05
2023-02-13T13:23:14.910Z,69.03
2023-02-13T13:24:39.110Z,69.10
2023-02-13T13:26:01.810Z,69.01
2023-02-13T13:27:26.497Z,69.26
2023-02-13T13:28:45.304Z,69.38
2023-02-13T13:30:15.318Z,69.31
2023-02-13T13:32:44.715Z,69.17
2023-02-13T13:33:58.234Z,69.20
2023-02-13T13:35:13.492Z,69.09
2023-02-13T13:36:42.540Z,69.25
2023-02-13T13:41:16.355Z,69.05
2023-02-13T13:42:46.907Z,69.03
2023-02-13T13:44:02.220Z,68.93
2023-02-13T13:47:15.096Z,69.15
2023-02-13T13:49:56.323Z,69.39
2023-02-13T13:51:07.567Z,69.57
2023-02-13T13:54:07.650Z,69.71
2023-02-13T13:57:05.566Z,69.74
2023-02-13T13:58:44.756Z,70.07
2023-02-13T14:01:24.326Z,70.32
2023-02-13T14:02:51.657Z,70.42
2023-02-13T14:04:04.026Z,70.16
2023-02-13T14:05:28.667Z,69.98
2023-02-13T14:07:01.538Z,69.45
2023-02-13T14:08:45.477Z,69.00
2023-02-13T14:09:54.840Z,68.36
2023-02-13T14:11:05.361Z,68.46
2023-02-13T14:12:32.990Z,68.41
2023-02-13T14:13:44.476Z,68.99
2023-02-13T14:14:54.894Z,69.29
2023-02-13T14:16:06.096Z,69.21
2023-02-13T14:18:34.101Z,69.75
2023-02-13T14:21:04.489Z,69.55
2023-02-13T14:22:27.534Z,69.50
2023-02-13T14:23:53.750Z,69.46
2023-02-13T14:26:35.824Z,69.71
2023-02-13T14:27:48.146Z,69.71
2023-02-13T14:29:00.927Z,69.81
2023-02-13T14:30:30.454Z,70.00
2023-02-13T14:31:42.886Z,69.88
2023-02-13T14:32:52.027Z,70.01
2023-02-13T14:34:07.451Z,69.55
2023-02-13T14:35:20.259Z,69.55
2023-02-13T14:36:33.417Z,69.37
2023-02-13T14:37:59.200Z,69.21
2023-02-13T14:39:20.517Z,68.99
2023-02-13T14:42:04.528Z,69.36
2023-02-13T14:44:49.446Z,69.35
2023-02-13T14:46:11.280Z,69.50
2023-02-13T14:49:00.952Z,69.86
2023-02-13T14:50:20.556Z,69.99
2023-02-13T14:51:36.353Z,70.01
2023-02-13T14:52:47.840Z,70.32
2023-02-13T14:56:47.012Z,70.45
2023-02-13T14:59:20.603Z,69.61
2023-02-13T15:02:25.652Z,68.90
2023-02-13T15:42:01.664Z,70.21
2023-02-13T15:44:40.215Z,70.21
2023-02-13T15:45:49.756Z,69.82
2023-02-13T15:48:18.089Z,69.41
2023-02-13T15:49:28.396Z,69.31
2023-02-13T15:50:37.883Z,69.14
2023-02-13T15:51:48.090Z,69.26
2023-02-13T15:52:58.915Z,69.46
2023-02-13T15:54:09.405Z,69.32
2023-02-13T15:55:22.708Z,69.59
2023-02-13T15:56:32.490Z,69.70
2023-02-13T15:57:42.456Z,69.87
2023-02-13T16:01:29.034Z,70.15
2023-02-13T16:02:46.571Z,70.07
2023-02-13T16:04:02.669Z,70.11
2023-02-13T16:05:14.633Z,70.18
2023-02-13T16:06:24.259Z,69.99
2023-02-13T16:07:48.269Z,69.86
2023-02-13T16:08:59.373Z,69.25
2023-02-13T16:11:40.027Z,69.51
2023-02-13T16:12:48.985Z,69.53
2023-02-13T16:14:16.967Z,69.44
2023-02-13T16:15:29.279Z,69.41
2023-02-13T16:18:06.332Z,69.37
2023-02-13T16:20:43.090Z,69.78
2023-02-13T16:21:53.459Z,69.94
2023-02-13T16:23:09.792Z,70.00
2023-02-13T16:24:21.466Z,70.07
2023-02-13T16:25:39.782Z,70.24
2023-02-13T16:26:49.785Z,70.43
2023-02-13T16:28:05.469Z,70.69
2023-02-13T16:29:18.389Z,70.59
2023-02-13T16:30:40.637Z,70.29
2023-02-13T16:31:51.640Z,69.92
2023-02-13T16:33:23.404Z,69.27
2023-02-13T16:34:32.061Z,69.38
2023-02-13T16:35:52.137Z,68.96
2023-02-13T16:37:01.417Z,68.54
2023-02-13T16:38:34.220Z,69.14
2023-02-13T16:39:42.736Z,69.04
2023-02-13T16:40:52.027Z,69.29
2023-02-13T16:42:01.716Z,69.84
2023-02-13T16:44:56.662Z,70.45
2023-02-13T16:46:36.396Z,70.82
2023-02-13T16:47:45.951Z,71.07
2023-02-13T16:49:07.384Z,71.32
2023-02-13T16:51:54.000Z,71.33
2023-02-13T16:53:03.955Z,71.00
2023-02-13T16:54:41.401Z,70.26
2023-02-13T16:56:02.144Z,70.29
2023-02-13T16:57:17.569Z,69.96
2023-02-13T16:58:27.477Z,69.65
2023-02-13T16:59:48.956Z,69.32
2023-02-13T17:00:58.450Z,69.09
2023-02-13T17:02:27.051Z,69.20
2023-02-13T17:04:58.840Z,69.54
2023-02-13T17:06:11.193Z,69.61
2023-02-13T17:07:23.081Z,70.13
2023-02-13T17:08:32.688Z,70.13
2023-02-13T17:09:41.556Z,70.39
2023-02-13T17:11:06.586Z,70.83
2023-02-13T17:12:19.163Z,70.88
2023-02-13T17:13:28.098Z,70.93
2023-02-13T17:14:37.625Z,70.96
2023-02-13T17:15:48.826Z,70.86
2023-02-13T17:16:58.994Z,70.82
2023-02-13T17:18:07.525Z,70.34
2023-02-13T17:19:16.146Z,70.44
2023-02-13T17:20:27.968Z,69.88
2023-02-13T17:21:40.973Z,69.77
2023-02-13T17:22:52.658Z,69.82
2023-02-13T17:24:02.461Z,69.86
2023-02-13T17:26:41.925Z,69.81
2023-02-13T17:27:52.981Z,69.86
2023-02-13T17:29:03.519Z,70.02
2023-02-13T17:30:19.657Z,70.38
2023-02-13T17:31:28.366Z,70.46
2023-02-13T17:32:37.143Z,70.81
2023-02-13T17:33:46.083Z,71.12
2023-02-13T17:34:54.820Z,70.81
2023-02-13T17:36:05.244Z,70.61
2023-02-13T17:38:36.900Z,70.26
2023-02-13T17:39:47.030Z,70.28
2023-02-13T17:40:55.884Z,70.00
2023-02-13T17:42:05.033Z,69.75
2023-02-13T17:43:16.615Z,69.38
2023-02-13T17:45:41.310Z,69.80
2023-02-13T17:46:50.152Z,70.29
2023-02-13T17:47:59.029Z,70.38
2023-02-13T17:49:08.127Z,70.50
2023-02-13T17:50:19.300Z,70.91
2023-02-13T17:51:31.274Z,70.75
2023-02-13T17:52:43.318Z,70.76
2023-02-13T17:53:53.120Z,70.78
2023-02-13T17:55:01.651Z,70.41
2023-02-13T17:56:10.315Z,70.48
2023-02-13T17:57:19.195Z,70.32
2023-02-13T17:58:27.716Z,69.95
2023-02-13T17:59:36.439Z,70.21
2023-02-13T18:00:46.375Z,70.03
2023-02-13T18:01:55.810Z,69.97
2023-02-13T18:03:05.174Z,70.29
2023-02-13T18:04:14.300Z,70.49
2023-02-13T18:05:23.459Z,70.12
2023-02-13T18:06:33.358Z,70.41
2023-02-13T18:07:43.544Z,70.11
2023-02-13T18:08:52.079Z,69.72
2023-02-13T18:10:00.723Z,69.76
2023-02-13T18:11:10.969Z,69.47
2023-02-13T18:12:24.300Z,69.01
2023-02-13T18:13:32.867Z,69.37
2023-02-13T18:14:44.519Z,69.46
2023-02-13T18:15:53.942Z,70.15
2023-02-13T18:17:04.517Z,70.14
2023-02-13T18:18:15.825Z,70.30
2023-02-13T18:19:25.091Z,70.64
2023-02-13T18:20:35.411Z,70.30
2023-02-13T18:21:44.488Z,70.18
2023-02-13T18:24:08.904Z,69.71
2023-02-13T18:25:20.032Z,70.05
2023-02-13T18:26:29.666Z,69.85
2023-02-13T18:27:39.110Z,69.91
2023-02-13T18:28:49.519Z,69.69
2023-02-13T18:29:58.584Z,69.59
2023-02-13T18:31:10.398Z,69.78
2023-02-13T18:32:19.169Z,70.15
2023-02-13T18:33:27.836Z,70.32
2023-02-13T18:34:38.054Z,70.53
2023-02-13T18:35:46.573Z,70.80
2023-02-13T18:36:55.655Z,70.81
2023-02-13T18:38:05.193Z,70.89
2023-02-13T18:39:15.905Z,70.57
2023-02-13T18:41:42.107Z,70.18
2023-02-13T18:42:51.859Z,70.26
2023-02-13T18:44:00.482Z,70.44
2023-02-13T18:45:11.561Z,70.23
2023-02-13T18:46:20.803Z,69.77
2023-02-13T18:47:29.376Z,69.67
2023-02-13T18:48:38.315Z,69.20
2023-02-13T18:49:48.053Z,68.95
2023-02-13T18:51:00.662Z,68.76
2023-02-13T18:52:09.332Z,68.84
2023-02-13T18:53:18.646Z,69.20
2023-02-13T18:54:28.596Z,69.56
2023-02-13T18:55:38.673Z,69.89
2023-02-13T18:56:47.944Z,69.79
2023-02-13T18:57:58.689Z,70.06
2023-02-13T18:59:07.365Z,70.36
2023-02-13T19:00:18.956Z,70.21
2023-02-13T19:01:27.831Z,70.32
2023-02-13T19:02:36.685Z,70.32
2023-02-13T19:03:48.184Z,70.56
2023-02-13T19:04:57.337Z,70.15
2023-02-13T19:06:12.333Z,69.83
2023-02-13T19:07:21.056Z,69.38
2023-02-13T19:08:29.903Z,69.20
2023-02-13T19:09:40.425Z,69.38
2023-02-13T19:10:51.909Z,69.48
2023-02-13T19:12:00.451Z,69.50
2023-02-13T19:13:08.958Z,69.92
2023-02-13T19:14:19.456Z,70.18
2023-02-13T19:15:28.283Z,69.97
2023-02-13T19:16:39.224Z,70.04
2023-02-13T19:17:47.785Z,70.30
2023-02-13T19:18:59.173Z,70.19
2023-02-13T19:20:10.792Z,70.44
2023-02-13T19:21:26.557Z,70.59
2023-02-13T19:22:36.257Z,70.84
2023-02-13T19:23:46.345Z,70.46
2023-02-13T19:24:55.225Z,70.47
2023-02-13T19:26:06.585Z,70.01
2023-02-13T19:27:16.943Z,69.33
2023-02-13T19:28:27.724Z,69.66
2023-02-13T19:29:37.011Z,69.56
2023-02-13T19:30:46.678Z,69.06
2023-02-13T19:31:56.176Z,69.06
2023-02-13T19:34:20.281Z,70.16
2023-02-13T19:35:29.049Z,70.36
2023-02-13T19:36:38.672Z,70.64
2023-02-13T19:39:11.034Z,70.71
2023-02-13T19:40:19.869Z,70.69
2023-02-13T19:41:28.952Z,70.80
2023-02-13T19:42:40.370Z,70.72
2023-02-13T19:45:08.852Z,70.48
2023-02-13T19:46:21.165Z,70.35
2023-02-13T19:47:31.306Z,70.47
2023-02-13T19:48:39.935Z,70.08
2023-02-13T19:49:49.246Z,69.71
2023-02-13T19:52:32.868Z,68.68
2023-02-13T19:53:43.000Z,68.99
2023-02-13T19:56:09.639Z,69.11
2023-02-13T19:57:18.172Z,69.53
2023-02-13T19:58:27.071Z,69.65
2023-02-13T19:59:38.693Z,69.53
2023-02-13T20:00:48.507Z,69.91
2023-02-13T20:01:57.382Z,69.88
2023-02-13T20:03:06.730Z,70.13
2023-02-13T20:04:19.142Z,70.24